createdAt,value
2022-10-10T00:01:37.023Z,96447.19
2022-10-10T00:04:06.930Z,96451.31
2022-10-10T00:06:36.713Z,96446.22
2022-10-10T00:09:05.770Z,96448.03
2022-10-10T00:11:34.464Z,96443.88
2022-10-10T00:14:03.212Z,96443.72
2022-10-10T00:16:31.666Z,96439.91
2022-10-10T00:19:00.055Z,96451.66
2022-10-10T00:21:28.421Z,96441.09
2022-10-10T00:23:58.137Z,96444.72
2022-10-10T00:26:26.536Z,96452.47
2022-10-10T00:28:54.875Z,96444.53
2022-10-10T00:31:23.463Z,96435.41
2022-10-10T00:33:51.816Z,96441.19
2022-10-10T00:36:21.471Z,96441.22
2022-10-10T00:38:49.825Z,96432.47
2022-10-10T00:41:19.597Z,96441.41
2022-10-10T00:44:03.180Z,96436.78
2022-10-10T00:46:32.078Z,96437.44
2022-10-10T00:49:01.088Z,96440.91
2022-10-10T00:51:29.452Z,96446.56
2022-10-10T00:54:02.746Z,96445.38
2022-10-10T00:56:39.023Z,96436.78
2022-10-10T00:59:11.130Z,96435.13
2022-10-10T01:01:41.093Z,96442.72
2022-10-10T01:04:34.923Z,96441.06
2022-10-10T01:07:07.231Z,96437.09
2022-10-10T01:09:38.705Z,96437.78
2022-10-10T01:12:19.587Z,96431.50
2022-10-10T01:14:58.638Z,96433.16
2022-10-10T01:17:33.436Z,96433.47
2022-10-10T01:20:44.945Z,96432.97
2022-10-10T01:23:51.080Z,96434.94
2022-10-10T01:26:48.727Z,96437.09
2022-10-10T01:29:26.835Z,96436.75
2022-10-10T01:31:57.752Z,96445.38
2022-10-10T01:34:33.319Z,96435.44
2022-10-10T01:37:09.728Z,96443.69
2022-10-10T01:39:45.840Z,96447.50
2022-10-10T01:42:20.401Z,96440.22
2022-10-10T01:44:53.856Z,96438.38
2022-10-10T01:47:23.103Z,96435.94
2022-10-10T01:49:55.952Z,96440.25
2022-10-10T01:52:34.363Z,96440.75
2022-10-10T01:55:16.868Z,96435.94
2022-10-10T01:57:59.732Z,96446.34
2022-10-10T02:00:29.929Z,96443.69
2022-10-10T02:03:06.388Z,96445.84
2022-10-10T02:05:41.207Z,96444.53
2022-10-10T02:08:13.055Z,96455.25
2022-10-10T02:10:45.883Z,96442.50
2022-10-10T02:13:16.217Z,96445.31
2022-10-10T02:15:49.298Z,96442.84
2022-10-10T02:18:21.215Z,96432.59
2022-10-10T02:20:51.564Z,96441.19
2022-10-10T02:23:22.779Z,96441.34
2022-10-10T02:25:55.437Z,96441.00
2022-10-10T02:28:26.816Z,96447.47
2022-10-10T02:31:00.615Z,96437.03
2022-10-10T02:33:34.653Z,96440.69
2022-10-10T02:36:03.967Z,96441.00
2022-10-10T02:38:32.589Z,96443.34
2022-10-10T02:41:04.117Z,96436.53
2022-10-10T02:43:34.041Z,96438.38
2022-10-10T02:46:08.890Z,96439.19
2022-10-10T02:48:37.431Z,96431.41
2022-10-10T02:51:06.059Z,96441.66
2022-10-10T02:53:35.606Z,96431.41
2022-10-10T02:56:03.942Z,96443.81
2022-10-10T02:58:32.541Z,96435.88
2022-10-10T03:01:00.929Z,96439.69
2022-10-10T03:03:30.747Z,96444.19
2022-10-10T03:05:59.122Z,96434.72
2022-10-10T03:08:27.474Z,96430.63
2022-10-10T03:10:57.223Z,96438.56
2022-10-10T03:13:25.708Z,96436.59
2022-10-10T03:15:54.418Z,96430.44
2022-10-10T03:18:23.224Z,96431.44
2022-10-10T03:20:53.988Z,96434.59
2022-10-10T03:23:22.578Z,96440.53
2022-10-10T03:25:50.891Z,96438.72
2022-10-10T03:28:19.323Z,96434.91
2022-10-10T03:30:48.352Z,96433.91
2022-10-10T03:33:16.926Z,96434.25
2022-10-10T03:35:45.452Z,96440.38
2022-10-10T03:38:15.616Z,96437.72
2022-10-10T03:40:45.214Z,96432.75
2022-10-10T03:43:15.302Z,96436.44
2022-10-10T03:45:45.029Z,96436.75
2022-10-10T03:48:13.427Z,96435.72
2022-10-10T03:50:41.963Z,96443.03
2022-10-10T03:53:10.459Z,96439.25
2022-10-10T03:55:42.476Z,96437.59
2022-10-10T03:58:11.669Z,96442.88
2022-10-10T04:00:40.331Z,96440.88
2022-10-10T04:03:09.334Z,96447.00
2022-10-10T04:05:39.411Z,96436.94
2022-10-10T04:08:08.323Z,96434.59
2022-10-10T04:10:36.879Z,96438.25
2022-10-10T04:13:06.699Z,96435.78
2022-10-10T04:15:35.155Z,96443.56
2022-10-10T04:18:03.905Z,96440.41
2022-10-10T04:20:32.851Z,96438.75
2022-10-10T04:23:02.504Z,96440.56
2022-10-10T04:25:30.986Z,96439.91
2022-10-10T04:28:01.197Z,96441.56
2022-10-10T04:30:34.391Z,96446.69
2022-10-10T04:33:03.647Z,96440.56
2022-10-10T04:35:32.000Z,96450.16
2022-10-10T04:38:01.246Z,96447.53
2022-10-10T04:40:29.615Z,96448.34
2022-10-10T04:42:58.031Z,96448.34
2022-10-10T04:45:27.204Z,96450.50
2022-10-10T04:47:57.083Z,96449.00
2022-10-10T04:50:26.192Z,96446.53
2022-10-10T04:52:54.503Z,96448.50
2022-10-10T04:55:22.890Z,96446.69
2022-10-10T04:57:51.268Z,96447.19
2022-10-10T05:00:19.849Z,96453.66
2022-10-10T05:02:48.595Z,96454.31
2022-10-10T05:05:18.964Z,96446.38
2022-10-10T05:07:50.657Z,96451.47
2022-10-10T05:10:21.465Z,96450.00
2022-10-10T05:12:50.180Z,96457.28
2022-10-10T05:15:19.132Z,96462.88
2022-10-10T05:17:47.458Z,96457.94
2022-10-10T05:20:15.853Z,96465.06
2022-10-10T05:22:45.827Z,96462.41
2022-10-10T05:25:14.429Z,96452.66
2022-10-10T05:27:42.784Z,96460.09
2022-10-10T05:30:12.127Z,96456.78
2022-10-10T05:32:40.519Z,96458.75
2022-10-10T05:35:09.859Z,96445.38
2022-10-10T05:37:38.400Z,96452.31
2022-10-10T05:40:09.673Z,96448.66
2022-10-10T05:42:38.029Z,96447.84
2022-10-10T05:45:07.436Z,96469.31
2022-10-10T05:47:35.841Z,96461.50
2022-10-10T05:50:05.237Z,96458.84
2022-10-10T05:52:35.215Z,96472.06
2022-10-10T05:55:03.620Z,96466.63
2022-10-10T05:57:33.325Z,96461.47
2022-10-10T06:00:01.775Z,96472.88
2022-10-10T06:02:30.166Z,96475.00
2022-10-10T06:04:58.514Z,96478.28
2022-10-10T06:07:36.137Z,96470.38
2022-10-10T06:10:15.169Z,96475.22
2022-10-10T06:12:44.967Z,96481.00
2022-10-10T06:15:13.367Z,96482.84
2022-10-10T06:17:41.904Z,96476.75
2022-10-10T06:20:10.968Z,96478.06
2022-10-10T06:22:39.344Z,96483.66
2022-10-10T06:25:23.919Z,96483.34
2022-10-10T06:27:57.892Z,96487.63
2022-10-10T06:30:26.399Z,96478.75
2022-10-10T06:32:57.127Z,96491.47
2022-10-10T06:35:26.081Z,96490.34
2022-10-10T06:37:54.483Z,96495.13
2022-10-10T06:40:22.839Z,96496.97
2022-10-10T06:42:51.354Z,96497.31
2022-10-10T06:45:21.291Z,96488.53
2022-10-10T06:47:50.168Z,96491.19
2022-10-10T06:50:18.708Z,96494.63
2022-10-10T06:52:47.631Z,96497.63
2022-10-10T06:55:16.631Z,96498.28
2022-10-10T06:57:45.042Z,96494.66
2022-10-10T07:00:14.808Z,96497.63
2022-10-10T07:02:45.036Z,96497.13
2022-10-10T07:05:15.916Z,96505.88
2022-10-10T07:07:45.468Z,96504.88
2022-10-10T07:10:15.625Z,96501.91
2022-10-10T07:12:44.976Z,96500.75
2022-10-10T07:15:13.791Z,96501.06
2022-10-10T07:17:42.380Z,96499.91
2022-10-10T07:20:12.272Z,96510.00
2022-10-10T07:22:43.798Z,96514.94
2022-10-10T07:25:12.366Z,96508.16
2022-10-10T07:27:40.833Z,96508.97
2022-10-10T07:30:10.367Z,96503.81
2022-10-10T07:32:38.753Z,96509.44
2022-10-10T07:35:07.510Z,96506.09
2022-10-10T07:37:37.483Z,96504.75
2022-10-10T07:40:09.631Z,96509.22
2022-10-10T07:42:38.303Z,96511.00
2022-10-10T07:45:07.587Z,96507.50
2022-10-10T07:47:36.123Z,96515.28
2022-10-10T07:50:06.167Z,96514.41
2022-10-10T07:52:35.048Z,96504.78
2022-10-10T07:55:06.124Z,96506.56
2022-10-10T07:57:35.139Z,96507.47
2022-10-10T08:00:04.754Z,96506.44
2022-10-10T08:02:33.096Z,96510.69
2022-10-10T08:05:01.568Z,96513.13
2022-10-10T08:07:30.020Z,96518.19
2022-10-10T08:09:58.564Z,96514.50
2022-10-10T08:12:28.279Z,96508.09
2022-10-10T08:14:56.677Z,96513.34
2022-10-10T08:17:25.107Z,96518.22
2022-10-10T08:19:53.439Z,96519.47
2022-10-10T08:22:21.798Z,96521.69
2022-10-10T08:24:50.211Z,96510.44
2022-10-10T08:27:19.381Z,96513.31
2022-10-10T08:29:49.252Z,96507.19
2022-10-10T08:32:17.619Z,96515.13
2022-10-10T08:34:45.999Z,96512.81
2022-10-10T08:37:14.319Z,96508.88
2022-10-10T08:39:42.714Z,96512.47
2022-10-10T08:42:18.004Z,96510.31
2022-10-10T08:44:52.049Z,96504.69
2022-10-10T08:47:23.039Z,96506.03
2022-10-10T08:49:56.299Z,96502.25
2022-10-10T08:52:33.041Z,96507.66
2022-10-10T08:55:05.027Z,96506.53
2022-10-10T08:57:36.647Z,96514.59
2022-10-10T09:00:09.428Z,96508.50
2022-10-10T09:02:55.858Z,96513.69
2022-10-10T09:05:38.836Z,96508.25
2022-10-10T09:08:26.877Z,96505.44
2022-10-10T09:10:58.565Z,96503.44
2022-10-10T09:13:34.631Z,96506.81
2022-10-10T09:16:09.159Z,96504.81
2022-10-10T09:18:47.441Z,96507.75
2022-10-10T09:21:19.410Z,96510.94
2022-10-10T09:23:53.370Z,96512.63
2022-10-10T09:26:26.455Z,96519.41
2022-10-10T09:29:01.096Z,96520.28
2022-10-10T09:31:37.222Z,96524.31
2022-10-10T09:34:10.769Z,96519.00
2022-10-10T09:36:39.341Z,96520.06
2022-10-10T09:39:18.494Z,96519.06
2022-10-10T09:41:52.007Z,96525.06
2022-10-10T09:44:22.380Z,96515.66
2022-10-10T09:46:52.496Z,96517.53
2022-10-10T09:49:21.852Z,96520.22
2022-10-10T09:51:50.743Z,96520.66
2022-10-10T09:54:20.962Z,96512.84
2022-10-10T09:56:52.824Z,96518.41
2022-10-10T09:59:42.124Z,96514.72
2022-10-10T10:02:18.485Z,96523.38
2022-10-10T10:04:47.851Z,96516.81
2022-10-10T10:07:21.831Z,96510.28
2022-10-10T10:09:52.274Z,96521.59
2022-10-10T10:12:25.172Z,96513.16
2022-10-10T10:15:00.933Z,96510.91
2022-10-10T10:17:31.219Z,96507.00
2022-10-10T10:19:59.808Z,96508.63
2022-10-10T10:22:34.607Z,96502.03
2022-10-10T10:25:32.594Z,96506.97
2022-10-10T10:28:18.047Z,96505.69
2022-10-10T10:30:46.947Z,96505.25
2022-10-10T10:33:35.627Z,96503.19
2022-10-10T10:36:16.256Z,96504.66
2022-10-10T10:38:49.483Z,96505.22
2022-10-10T10:41:30.679Z,96504.97
2022-10-10T10:44:15.090Z,96511.75
2022-10-10T10:46:54.871Z,96501.81
2022-10-10T10:49:33.347Z,96500.31
2022-10-10T10:52:37.107Z,96505.00
2022-10-10T10:55:17.869Z,96495.47
2022-10-10T10:58:58.635Z,96506.81
2022-10-10T11:01:23.704Z,96495.25
2022-10-10T11:05:21.128Z,96488.19
2022-10-10T11:07:18.458Z,96490.25
2022-10-10T11:09:56.599Z,96482.53
2022-10-10T11:12:54.549Z,96491.34
2022-10-10T11:15:37.531Z,96488.34
2022-10-10T11:18:19.032Z,96480.41
2022-10-10T11:20:50.656Z,96479.91
2022-10-10T11:23:26.091Z,96480.81
2022-10-10T11:25:59.570Z,96480.06
2022-10-10T11:28:34.008Z,96478.53
2022-10-10T11:31:06.801Z,96473.50
2022-10-10T11:33:40.016Z,96474.84
2022-10-10T11:36:17.139Z,96478.88
2022-10-10T11:38:52.516Z,96474.00
2022-10-10T11:41:25.205Z,96473.31
2022-10-10T11:43:57.242Z,96471.59
2022-10-10T11:46:34.111Z,96472.94
2022-10-10T11:49:09.974Z,96469.13
2022-10-10T11:51:44.520Z,96471.25
2022-10-10T11:54:26.483Z,96473.88
2022-10-10T11:57:02.013Z,96472.97
2022-10-10T11:59:37.322Z,96462.91
2022-10-10T12:02:18.848Z,96460.31
2022-10-10T12:04:47.843Z,96467.94
2022-10-10T12:07:22.560Z,96454.97
2022-10-10T12:09:58.337Z,96450.06
2022-10-10T12:12:31.352Z,96450.31
2022-10-10T12:15:03.152Z,96449.13
2022-10-10T12:17:39.692Z,96450.31
2022-10-10T12:20:32.030Z,96443.41
2022-10-10T12:23:22.375Z,96444.69
2022-10-10T12:25:52.105Z,96445.41
2022-10-10T12:28:37.119Z,96445.31
2022-10-10T12:31:30.117Z,96448.00
2022-10-10T12:34:10.502Z,96445.63
2022-10-10T12:36:56.798Z,96440.03
2022-10-10T12:40:02.328Z,96446.22
2022-10-10T12:42:34.728Z,96444.38
2022-10-10T12:45:03.247Z,96444.69
2022-10-10T12:48:03.885Z,96442.25
2022-10-10T12:50:35.041Z,96438.28
2022-10-10T12:53:05.895Z,96436.16
2022-10-10T12:55:42.795Z,96438.38
2022-10-10T12:58:26.534Z,96434.50
2022-10-10T13:00:58.456Z,96430.91
2022-10-10T13:03:31.742Z,96438.16
2022-10-10T13:06:06.438Z,96441.78
2022-10-10T13:08:38.288Z,96441.47
2022-10-10T13:11:10.779Z,96430.19
2022-10-10T13:13:41.547Z,96438.84
2022-10-10T13:16:14.472Z,96438.63
2022-10-10T13:18:49.495Z,96443.66
2022-10-10T13:21:22.137Z,96438.50
2022-10-10T13:26:46.911Z,96439.56
2022-10-10T13:29:24.419Z,96447.38
2022-10-10T13:31:56.491Z,96443.88
2022-10-10T13:34:30.700Z,96445.75
2022-10-10T13:37:00.815Z,96446.22
2022-10-10T13:39:31.487Z,96441.53
2022-10-10T13:42:01.027Z,96440.59
2022-10-10T13:44:47.490Z,96447.94
2022-10-10T13:47:52.647Z,96456.25
2022-10-10T13:50:24.427Z,96450.03
2022-10-10T13:53:26.079Z,96454.03
2022-10-10T13:56:02.330Z,96451.44
2022-10-10T13:58:33.911Z,96445.00
2022-10-10T14:01:05.332Z,96447.47
2022-10-10T14:03:34.955Z,96453.44
2022-10-10T14:06:03.431Z,96452.84
2022-10-10T14:08:34.714Z,96451.44
2022-10-10T14:11:06.982Z,96454.13
2022-10-10T14:13:38.707Z,96458.91
2022-10-10T14:16:24.384Z,96460.41
2022-10-10T14:18:54.209Z,96457.16
2022-10-10T14:21:22.699Z,96467.31
2022-10-10T14:23:51.064Z,96468.81
2022-10-10T14:26:21.931Z,96464.72
2022-10-10T14:28:50.512Z,96466.00
2022-10-10T14:31:20.511Z,96469.34
2022-10-10T14:33:48.896Z,96468.97
2022-10-10T14:36:17.347Z,96464.53
2022-10-10T14:38:45.761Z,96466.25
2022-10-10T14:41:14.283Z,96459.91
2022-10-10T14:43:45.878Z,96468.69
2022-10-10T14:46:19.617Z,96467.13
2022-10-10T14:48:49.434Z,96465.34
2022-10-10T14:51:33.905Z,96474.28
2022-10-10T14:54:11.060Z,96480.78
2022-10-10T14:57:07.691Z,96471.16
2022-10-10T14:59:48.197Z,96473.72
2022-10-10T15:02:20.636Z,96469.25
2022-10-10T15:04:50.960Z,96476.34
2022-10-10T15:07:19.865Z,96471.41
2022-10-10T15:10:30.877Z,96477.41
2022-10-10T15:12:41.048Z,96482.41
2022-10-10T15:15:11.172Z,96472.34
2022-10-10T15:17:39.663Z,96487.22
2022-10-10T15:20:12.293Z,96480.69
2022-10-10T15:22:41.419Z,96481.34
2022-10-10T15:25:10.553Z,96484.47
2022-10-10T15:27:39.236Z,96491.09
2022-10-10T15:30:09.048Z,96486.41
2022-10-10T15:32:40.429Z,96492.44
2022-10-10T15:35:14.690Z,96494.50
2022-10-10T15:37:44.658Z,96499.28
2022-10-10T15:40:14.734Z,96496.22
2022-10-10T15:42:43.406Z,96501.19
2022-10-10T15:45:12.469Z,96504.53
2022-10-10T15:47:46.505Z,96497.75
2022-10-10T15:50:16.441Z,96495.72
2022-10-10T15:52:44.979Z,96504.22
2022-10-10T15:55:13.311Z,96507.94
2022-10-10T15:57:41.712Z,96510.22
2022-10-10T16:00:10.829Z,96513.34
2022-10-10T16:02:39.312Z,96519.13
2022-10-10T16:05:08.557Z,96523.28
2022-10-10T16:07:46.619Z,96519.69
2022-10-10T16:10:16.455Z,96521.81
2022-10-10T16:12:44.840Z,96526.78
2022-10-10T16:15:13.540Z,96526.84
2022-10-10T16:17:41.891Z,96540.47
2022-10-10T16:20:11.251Z,96534.31
2022-10-10T16:22:41.145Z,96537.81
2022-10-10T16:25:21.961Z,96542.81
2022-10-10T16:27:51.936Z,96547.16
2022-10-10T16:30:21.014Z,96543.22
2022-10-10T16:32:49.875Z,96548.41
2022-10-10T16:35:18.490Z,96548.22
2022-10-10T16:37:48.275Z,96545.97
2022-10-10T16:40:16.742Z,96549.28
2022-10-10T16:42:45.597Z,96554.81
2022-10-10T16:45:14.043Z,96551.78
2022-10-10T16:47:42.438Z,96551.38
2022-10-10T16:50:11.519Z,96552.59
2022-10-10T16:52:40.549Z,96551.97
2022-10-10T16:55:14.064Z,96548.69
2022-10-10T16:57:42.400Z,96552.63
2022-10-10T17:00:12.044Z,96554.47
2022-10-10T17:02:42.412Z,96553.84
2022-10-10T17:05:11.203Z,96560.22
2022-10-10T17:07:39.819Z,96557.75
2022-10-10T17:10:10.880Z,96564.13
2022-10-10T17:12:39.235Z,96559.81
2022-10-10T17:15:08.681Z,96564.75
2022-10-10T17:17:37.804Z,96569.72
2022-10-10T17:20:07.524Z,96571.97
2022-10-10T17:22:35.951Z,96576.91
2022-10-10T17:25:04.922Z,96575.69
2022-10-10T17:27:35.969Z,96577.13
2022-10-10T17:30:05.497Z,96582.91
2022-10-10T17:32:33.919Z,96584.34
2022-10-10T17:35:02.554Z,96584.75
2022-10-10T17:37:31.095Z,96587.00
2022-10-10T17:39:59.609Z,96591.97
2022-10-10T17:42:28.092Z,96598.94
2022-10-10T17:44:59.517Z,96596.06
2022-10-10T17:47:28.468Z,96600.38
2022-10-10T17:49:56.854Z,96593.97
2022-10-10T17:52:25.951Z,96598.50
2022-10-10T17:54:54.316Z,96599.53
2022-10-10T17:57:22.679Z,96603.88
2022-10-10T17:59:51.069Z,96604.06
2022-10-10T18:02:20.936Z,96594.19
2022-10-10T18:04:49.303Z,96589.25
2022-10-10T18:07:18.760Z,96595.63
2022-10-10T18:09:47.242Z,96598.72
2022-10-10T18:12:15.661Z,96601.16
2022-10-10T18:14:44.151Z,96601.97
2022-10-10T18:17:13.872Z,96600.31
2022-10-10T18:19:43.684Z,96599.28
2022-10-10T18:22:12.046Z,96604.97
2022-10-10T18:24:40.659Z,96601.91
2022-10-10T18:27:09.515Z,96602.31
2022-10-10T18:29:39.572Z,96604.75
2022-10-10T18:32:08.052Z,96609.25
2022-10-10T18:34:36.683Z,96614.81
2022-10-10T18:37:06.971Z,96608.84
2022-10-10T18:39:37.303Z,96608.41
2022-10-10T18:42:06.004Z,96611.50
2022-10-10T18:44:34.568Z,96616.59
2022-10-10T18:47:03.239Z,96605.50
2022-10-10T18:49:31.660Z,96612.69
2022-10-10T18:52:00.016Z,96614.53
2022-10-10T18:54:30.730Z,96612.44
2022-10-10T18:56:59.443Z,96609.16
2022-10-10T18:59:27.812Z,96608.53
2022-10-10T19:01:56.360Z,96612.25
2022-10-10T19:04:25.196Z,96623.13
2022-10-10T19:06:57.641Z,96615.28
2022-10-10T19:09:27.067Z,96620.63
2022-10-10T19:11:57.036Z,96620.00
2022-10-10T19:14:25.437Z,96620.22
2022-10-10T19:16:53.887Z,96619.38
2022-10-10T19:19:22.323Z,96619.00
2022-10-10T19:21:51.260Z,96624.13
2022-10-10T19:24:21.404Z,96615.28
2022-10-10T19:26:53.354Z,96628.03
2022-10-10T19:29:24.395Z,96638.91
2022-10-10T19:31:53.191Z,96640.94
2022-10-10T19:34:21.825Z,96645.03
2022-10-10T19:36:51.064Z,96651.59
2022-10-10T19:39:19.526Z,96648.31
2022-10-10T19:41:48.386Z,96646.44
2022-10-10T19:44:16.793Z,96651.59
2022-10-10T19:46:46.472Z,96641.94
2022-10-10T19:49:14.844Z,96646.44
2022-10-10T19:51:43.219Z,96642.97
2022-10-10T19:54:11.722Z,96644.78
2022-10-10T19:56:40.186Z,96655.47
2022-10-10T19:59:08.568Z,96654.66
2022-10-10T20:01:37.287Z,96657.72
2022-10-10T20:04:07.190Z,96663.25
2022-10-10T20:06:35.610Z,96664.44
2022-10-10T20:09:08.326Z,96664.44
2022-10-10T20:11:39.783Z,96661.78
2022-10-10T20:14:09.011Z,96672.69
2022-10-10T20:16:37.682Z,96673.50
2022-10-10T20:19:07.446Z,96669.78
2022-10-10T20:21:36.291Z,96669.59
2022-10-10T20:24:07.442Z,96677.41
2022-10-10T20:26:36.484Z,96680.91
2022-10-10T20:29:05.045Z,96681.75
2022-10-10T20:31:35.795Z,96679.28
2022-10-10T20:34:05.656Z,96687.28
2022-10-10T20:36:36.279Z,96685.81
2022-10-10T20:39:08.017Z,96693.19
2022-10-10T20:41:37.666Z,96685.41
2022-10-10T20:44:08.564Z,96686.22
2022-10-10T20:46:38.553Z,96688.88
2022-10-10T20:49:09.629Z,96693.19
2022-10-10T20:51:39.385Z,96690.34
2022-10-10T20:54:08.414Z,96695.66
2022-10-10T20:56:37.054Z,96699.75
2022-10-10T20:59:06.866Z,96705.69
2022-10-10T21:01:35.602Z,96700.06
2022-10-10T21:04:04.599Z,96704.94
2022-10-10T21:06:36.108Z,96706.97
2022-10-10T21:09:09.063Z,96703.06
2022-10-10T21:11:39.016Z,96704.25
2022-10-10T21:14:07.506Z,96698.91
2022-10-10T21:16:39.367Z,96696.25
2022-10-10T21:19:10.196Z,96704.47
2022-10-10T21:21:39.318Z,96702.59
2022-10-10T21:24:12.079Z,96707.13
2022-10-10T21:26:41.804Z,96711.00
2022-10-10T21:29:10.719Z,96711.00
2022-10-10T21:31:40.456Z,96702.16
2022-10-10T21:34:13.515Z,96713.81
2022-10-10T21:36:42.132Z,96715.03
2022-10-10T21:39:12.315Z,96711.72
2022-10-10T21:41:40.889Z,96708.81
2022-10-10T21:44:11.400Z,96719.47
2022-10-10T21:46:39.804Z,96716.56
2022-10-10T21:49:09.943Z,96718.16
2022-10-10T21:51:40.027Z,96713.19
2022-10-10T21:54:09.303Z,96715.22
2022-10-10T21:56:39.277Z,96717.25
2022-10-10T21:59:08.394Z,96717.44
2022-10-10T22:01:37.679Z,96715.81
2022-10-10T22:04:07.143Z,96710.66
2022-10-10T22:06:36.148Z,96705.50
2022-10-10T22:09:05.933Z,96705.69
2022-10-10T22:11:35.543Z,96715.09
2022-10-10T22:14:06.020Z,96722.25
2022-10-10T22:16:35.147Z,96719.78
2022-10-10T22:19:04.716Z,96723.66
2022-10-10T22:21:35.016Z,96714.22
2022-10-10T22:24:06.990Z,96712.91
2022-10-10T22:26:36.224Z,96713.31
2022-10-10T22:29:06.203Z,96714.53
2022-10-10T22:31:37.500Z,96714.69
2022-10-10T22:34:06.612Z,96710.19
2022-10-10T22:36:35.561Z,96709.38
2022-10-10T22:39:04.667Z,96718.81
2022-10-10T22:41:33.060Z,96710.38
2022-10-10T22:44:03.236Z,96714.06
2022-10-10T22:46:33.171Z,96721.22
2022-10-10T22:49:02.351Z,96725.09
2022-10-10T22:51:30.739Z,96721.16
2022-10-10T22:53:59.215Z,96728.50
2022-10-10T22:56:27.608Z,96729.50
2022-10-10T22:58:56.171Z,96728.06
2022-10-10T23:01:26.991Z,96719.25
2022-10-10T23:04:00.381Z,96727.41
2022-10-10T23:06:29.228Z,96725.97
2022-10-10T23:08:58.142Z,96719.16
2022-10-10T23:11:26.599Z,96728.97
2022-10-10T23:13:54.930Z,96725.31
2022-10-10T23:16:23.507Z,96731.66
2022-10-10T23:18:51.951Z,96738.38
2022-10-10T23:21:21.920Z,96731.38
2022-10-10T23:23:50.328Z,96739.38
2022-10-10T23:26:18.704Z,96735.53
2022-10-10T23:28:47.191Z,96733.03
2022-10-10T23:31:15.765Z,96735.25
2022-10-10T23:33:44.397Z,96732.13
2022-10-10T23:36:14.483Z,96733.50
2022-10-10T23:38:44.892Z,96734.06
2022-10-10T23:41:14.202Z,96740.78
2022-10-10T23:43:42.856Z,96743.00
2022-10-10T23:46:11.658Z,96736.00
2022-10-10T23:48:40.071Z,96741.31
2022-10-10T23:51:08.472Z,96738.84
2022-10-10T23:53:37.259Z,96739.88
2022-10-10T23:56:08.088Z,96744.16
2022-10-10T23:58:36.689Z,96741.72
